createdAt,value
2023-05-14T00:00:17.008Z,85.41
2023-05-14T00:02:40.072Z,85.42
2023-05-14T00:05:02.769Z,85.40
2023-05-14T00:07:30.847Z,86.20
2023-05-14T00:09:53.484Z,86.12
2023-05-14T00:12:16.515Z,86.62
2023-05-14T00:14:39.306Z,87.01
2023-05-14T00:17:01.961Z,86.44
2023-05-14T00:19:24.581Z,86.35
2023-05-14T00:21:48.341Z,86.44
2023-05-14T00:24:10.973Z,86.59
2023-05-14T00:26:33.848Z,86.54
2023-05-14T00:28:56.499Z,86.45
2023-05-14T00:31:19.103Z,86.52
2023-05-14T00:33:41.830Z,86.64
2023-05-14T00:36:04.668Z,86.03
2023-05-14T00:38:27.830Z,86.40
2023-05-14T00:40:53.099Z,86.86
2023-05-14T00:43:15.972Z,86.11
2023-05-14T00:45:39.288Z,86.06
2023-05-14T00:48:02.196Z,86.25
2023-05-14T00:50:25.400Z,86.13
2023-05-14T00:52:48.744Z,86.17
2023-05-14T00:55:16.540Z,86.34
2023-05-14T00:57:40.728Z,85.71
2023-05-14T01:00:04.020Z,85.84
2023-05-14T01:02:27.458Z,86.24
2023-05-14T01:04:51.447Z,85.85
2023-05-14T01:07:21.174Z,86.07
2023-05-14T01:10:11.539Z,85.81
2023-05-14T01:12:58.414Z,85.79
2023-05-14T01:15:28.823Z,85.00
2023-05-14T01:18:05.014Z,85.04
2023-05-14T01:20:27.778Z,85.36
2023-05-14T01:22:50.435Z,85.07
2023-05-14T01:25:13.280Z,85.14
2023-05-14T01:27:42.732Z,84.74
2023-05-14T01:30:31.983Z,84.64
2023-05-14T01:32:58.249Z,84.64
2023-05-14T01:35:25.860Z,84.66
2023-05-14T01:37:50.268Z,84.64
2023-05-14T01:40:14.112Z,84.64
2023-05-14T01:42:37.596Z,84.90
2023-05-14T01:45:00.917Z,84.97
2023-05-14T01:47:23.609Z,84.71
2023-05-14T01:49:46.233Z,84.32
2023-05-14T01:52:08.885Z,84.59
2023-05-14T01:54:31.515Z,84.56
2023-05-14T01:56:54.256Z,84.79
2023-05-14T01:59:17.102Z,85.30
2023-05-14T02:01:39.778Z,84.62
2023-05-14T02:04:02.365Z,84.91
2023-05-14T02:06:25.581Z,84.78
2023-05-14T02:08:48.205Z,84.99
2023-05-14T02:11:10.892Z,84.84
2023-05-14T02:13:33.455Z,84.68
2023-05-14T02:15:56.252Z,85.05
2023-05-14T02:18:19.354Z,84.96
2023-05-14T02:20:42.330Z,84.64
2023-05-14T02:23:04.949Z,84.74
2023-05-14T02:25:27.647Z,84.61
2023-05-14T02:27:50.785Z,84.25
2023-05-14T02:30:13.602Z,84.52
2023-05-14T02:32:36.355Z,84.65
2023-05-14T02:34:59.115Z,84.76
2023-05-14T02:37:21.880Z,84.56
2023-05-14T02:39:44.483Z,84.59
2023-05-14T02:42:07.607Z,84.94
2023-05-14T02:44:31.873Z,84.88
2023-05-14T02:46:54.622Z,85.24
2023-05-14T02:49:17.590Z,84.49
2023-05-14T02:51:40.105Z,84.68
2023-05-14T02:54:02.852Z,85.13
2023-05-14T02:56:26.535Z,85.10
2023-05-14T02:58:49.277Z,84.70
2023-05-14T03:01:12.281Z,84.67
2023-05-14T03:03:36.764Z,85.22
2023-05-14T03:05:59.948Z,84.65
2023-05-14T03:08:22.575Z,84.90
2023-05-14T03:10:45.287Z,84.98
2023-05-14T03:13:08.079Z,84.71
2023-05-14T03:15:30.632Z,84.22
2023-05-14T03:17:53.215Z,84.49
2023-05-14T03:20:16.043Z,84.29
2023-05-14T03:22:38.766Z,84.40
2023-05-14T03:25:01.332Z,84.62
2023-05-14T03:27:24.669Z,84.55
2023-05-14T03:29:47.959Z,84.76
2023-05-14T03:32:10.674Z,84.69
2023-05-14T03:34:33.251Z,85.26
2023-05-14T03:36:55.907Z,84.21
2023-05-14T03:39:19.964Z,84.12
2023-05-14T03:41:42.682Z,84.86
2023-05-14T03:44:06.383Z,84.03
2023-05-14T03:46:29.084Z,84.44
2023-05-14T03:48:52.394Z,84.62
2023-05-14T03:51:15.101Z,84.85
2023-05-14T03:53:37.740Z,84.30
2023-05-14T03:56:00.405Z,84.09
2023-05-14T03:58:22.985Z,84.35
2023-05-14T04:00:45.679Z,84.65
2023-05-14T04:03:08.545Z,84.73
2023-05-14T04:05:31.205Z,84.17
2023-05-14T04:07:54.009Z,84.65
2023-05-14T04:10:16.696Z,84.19
2023-05-14T04:12:39.243Z,83.18
2023-05-14T04:15:02.049Z,83.73
2023-05-14T04:17:24.917Z,84.34
2023-05-14T04:19:47.717Z,84.07
2023-05-14T04:22:10.344Z,84.04
2023-05-14T04:24:32.933Z,83.97
2023-05-14T04:26:55.480Z,83.64
2023-05-14T04:29:18.107Z,84.43
2023-05-14T04:31:41.040Z,84.08
2023-05-14T04:34:03.692Z,83.44
2023-05-14T04:36:26.357Z,83.38
2023-05-14T04:38:49.039Z,83.55
2023-05-14T04:41:11.596Z,83.44
2023-05-14T04:43:34.175Z,83.37
2023-05-14T04:45:56.956Z,83.45
2023-05-14T04:48:20.054Z,82.84
2023-05-14T04:50:44.358Z,83.48
2023-05-14T04:53:06.959Z,83.18
2023-05-14T04:55:29.575Z,83.64
2023-05-14T04:57:52.229Z,83.33
2023-05-14T05:00:16.013Z,83.09
2023-05-14T05:02:39.145Z,83.20
2023-05-14T05:05:01.848Z,81.93
2023-05-14T05:07:24.488Z,83.18
2023-05-14T05:09:47.007Z,82.69
2023-05-14T05:12:09.863Z,82.83
2023-05-14T05:14:32.569Z,82.61
2023-05-14T05:16:55.254Z,82.69
2023-05-14T05:19:17.896Z,82.69
2023-05-14T05:21:41.066Z,82.28
2023-05-14T05:24:03.781Z,82.89
2023-05-14T05:26:27.290Z,82.69
2023-05-14T05:28:49.834Z,82.50
2023-05-14T05:31:12.704Z,82.85
2023-05-14T05:33:35.920Z,82.35
2023-05-14T05:35:58.529Z,81.93
2023-05-14T05:38:21.085Z,82.53
2023-05-14T05:40:43.898Z,82.02
2023-05-14T05:43:06.514Z,82.61
2023-05-14T05:45:29.101Z,82.70
2023-05-14T05:47:51.855Z,83.24
2023-05-14T05:50:15.098Z,82.53
2023-05-14T05:52:38.203Z,82.99
2023-05-14T05:55:01.217Z,83.07
2023-05-14T05:57:26.252Z,83.81
2023-05-14T05:59:48.971Z,83.41
2023-05-14T06:02:11.628Z,83.76
2023-05-14T06:04:34.332Z,83.74
2023-05-14T06:06:56.834Z,83.72
2023-05-14T06:09:19.587Z,83.20
2023-05-14T06:11:42.226Z,83.62
2023-05-14T06:14:04.930Z,84.20
2023-05-14T06:16:27.778Z,84.64
2023-05-14T06:18:52.442Z,84.22
2023-05-14T06:21:15.054Z,84.40
2023-05-14T06:23:37.833Z,84.66
2023-05-14T06:26:00.619Z,84.29
2023-05-14T06:28:23.374Z,84.21
2023-05-14T06:30:45.961Z,83.64
2023-05-14T06:33:08.714Z,84.92
2023-05-14T06:35:32.888Z,84.54
2023-05-14T06:37:55.705Z,84.11
2023-05-14T06:40:18.911Z,84.90
2023-05-14T06:42:42.293Z,84.39
2023-05-14T06:45:06.025Z,84.43
2023-05-14T06:47:28.717Z,84.80
2023-05-14T06:49:51.323Z,84.85
2023-05-14T06:52:13.992Z,84.59
2023-05-14T06:54:36.578Z,84.70
2023-05-14T06:56:59.114Z,84.24
2023-05-14T06:59:21.884Z,84.32
2023-05-14T07:01:44.573Z,84.04
2023-05-14T07:04:07.292Z,84.37
2023-05-14T07:06:29.984Z,84.15
2023-05-14T07:08:53.397Z,83.85
2023-05-14T07:11:16.059Z,83.66
2023-05-14T07:13:38.635Z,83.99
2023-05-14T07:16:01.381Z,83.54
2023-05-14T07:18:24.382Z,83.86
2023-05-14T07:20:47.101Z,83.25
2023-05-14T07:23:09.730Z,83.72
2023-05-14T07:25:32.804Z,83.04
2023-05-14T07:27:55.837Z,84.20
2023-05-14T07:30:18.608Z,83.32
2023-05-14T07:32:41.485Z,82.40
2023-05-14T07:35:04.960Z,81.79
2023-05-14T07:37:27.874Z,83.61
2023-05-14T07:39:50.587Z,83.06
2023-05-14T07:42:21.952Z,83.56
2023-05-14T07:44:51.590Z,83.42
2023-05-14T07:47:14.218Z,82.94
2023-05-14T07:49:37.041Z,82.96
2023-05-14T07:51:59.683Z,83.24
2023-05-14T07:54:22.854Z,81.89
2023-05-14T07:56:45.775Z,82.32
2023-05-14T07:59:08.453Z,81.55
2023-05-14T08:01:31.774Z,82.44
2023-05-14T08:03:54.665Z,83.33
2023-05-14T08:06:17.905Z,83.23
2023-05-14T08:08:41.005Z,82.78
2023-05-14T08:11:03.881Z,83.35
2023-05-14T08:13:26.689Z,83.81
2023-05-14T08:15:49.577Z,84.42
2023-05-14T08:18:12.296Z,83.58
2023-05-14T08:20:34.923Z,83.94
2023-05-14T08:22:58.390Z,82.82
2023-05-14T08:25:20.944Z,83.21
2023-05-14T08:27:43.526Z,83.49
2023-05-14T08:30:06.876Z,83.09
2023-05-14T08:32:29.771Z,84.05
2023-05-14T08:34:52.530Z,84.64
2023-05-14T08:37:15.402Z,84.61
2023-05-14T08:39:38.307Z,83.53
2023-05-14T08:42:02.932Z,83.49
2023-05-14T08:44:50.179Z,83.64
2023-05-14T08:47:15.543Z,84.21
2023-05-14T08:49:43.033Z,84.63
2023-05-14T08:52:06.188Z,83.42
2023-05-14T08:54:30.067Z,84.41
2023-05-14T08:56:53.335Z,84.36
2023-05-14T08:59:15.981Z,83.37
2023-05-14T09:01:42.141Z,82.81
2023-05-14T09:04:08.536Z,83.84
2023-05-14T09:06:32.551Z,84.14
2023-05-14T09:08:56.181Z,83.72
2023-05-14T09:11:19.274Z,83.17
2023-05-14T09:13:41.932Z,83.80
2023-05-14T09:16:04.965Z,84.33
2023-05-14T09:18:27.745Z,84.00
2023-05-14T09:20:52.367Z,84.05
2023-05-14T09:23:15.000Z,83.72
2023-05-14T09:25:37.758Z,84.10
2023-05-14T09:28:02.909Z,83.71
2023-05-14T09:30:27.400Z,83.87
2023-05-14T09:33:10.791Z,83.94
2023-05-14T09:36:03.032Z,84.57
2023-05-14T09:38:32.862Z,84.53
2023-05-14T09:40:56.282Z,84.34
2023-05-14T09:43:19.125Z,84.99
2023-05-14T09:45:41.690Z,84.74
2023-05-14T09:48:04.598Z,84.71
2023-05-14T09:50:27.284Z,85.63
2023-05-14T09:52:49.949Z,85.74
2023-05-14T09:55:12.949Z,86.20
2023-05-14T09:57:35.877Z,85.84
2023-05-14T09:59:58.530Z,86.73
2023-05-14T10:02:26.252Z,86.42
2023-05-14T10:04:54.038Z,86.70
2023-05-14T10:07:19.780Z,87.37
2023-05-14T10:09:44.239Z,86.75
2023-05-14T10:12:07.984Z,86.93
2023-05-14T10:14:43.152Z,86.86
2023-05-14T10:17:06.624Z,86.84
2023-05-14T10:19:34.955Z,86.83
2023-05-14T10:22:04.443Z,86.82
2023-05-14T10:24:27.583Z,86.36
2023-05-14T10:26:50.309Z,86.17
2023-05-14T10:29:13.174Z,86.47
2023-05-14T10:31:49.710Z,86.79
2023-05-14T10:34:31.408Z,86.35
2023-05-14T10:36:54.155Z,86.26
2023-05-14T10:39:16.699Z,85.77
2023-05-14T10:41:40.367Z,86.41
2023-05-14T10:44:09.447Z,86.47
2023-05-14T10:46:32.447Z,86.31
2023-05-14T10:48:55.152Z,86.95
2023-05-14T10:51:20.928Z,85.77
2023-05-14T10:53:44.097Z,86.70
2023-05-14T10:56:09.121Z,85.24
2023-05-14T10:58:35.041Z,85.45
2023-05-14T11:00:57.987Z,85.38
2023-05-14T11:03:21.644Z,84.95
2023-05-14T11:05:44.934Z,85.93
2023-05-14T11:08:08.572Z,85.58
2023-05-14T11:10:31.352Z,85.84
2023-05-14T11:12:54.007Z,85.71
2023-05-14T11:15:18.959Z,85.40
2023-05-14T11:17:43.683Z,85.82
2023-05-14T11:20:08.070Z,85.49
2023-05-14T11:22:31.698Z,85.77
2023-05-14T11:24:54.524Z,84.59
2023-05-14T11:27:18.137Z,85.24
2023-05-14T11:29:47.430Z,85.65
2023-05-14T11:32:10.052Z,85.17
2023-05-14T11:34:34.649Z,85.19
2023-05-14T11:36:57.336Z,86.30
2023-05-14T11:39:19.981Z,86.02
2023-05-14T11:41:46.277Z,86.92
2023-05-14T11:44:11.027Z,86.25
2023-05-14T11:46:33.589Z,86.31
2023-05-14T11:48:56.256Z,87.12
2023-05-14T11:51:18.814Z,86.95
2023-05-14T11:53:41.433Z,86.88
2023-05-14T11:56:04.246Z,86.83
2023-05-14T11:58:26.923Z,87.21
2023-05-14T12:00:53.626Z,87.65
2023-05-14T12:03:16.789Z,87.23
2023-05-14T12:05:40.193Z,87.33
2023-05-14T12:08:02.774Z,87.66
2023-05-14T12:10:25.752Z,87.51
2023-05-14T12:12:48.894Z,87.51
2023-05-14T12:15:16.502Z,87.62
2023-05-14T12:17:39.806Z,87.82
2023-05-14T12:20:02.558Z,88.62
2023-05-14T12:22:25.344Z,88.82
2023-05-14T12:24:58.688Z,88.29
2023-05-14T12:27:28.244Z,89.22
2023-05-14T12:30:01.942Z,89.57
2023-05-14T12:32:32.898Z,89.36
2023-05-14T12:34:55.557Z,89.84
2023-05-14T12:37:18.567Z,89.83
2023-05-14T12:39:41.295Z,89.70
2023-05-14T12:42:04.220Z,90.23
2023-05-14T12:44:26.748Z,90.54
2023-05-14T12:46:49.425Z,89.75
2023-05-14T12:49:12.127Z,89.95
2023-05-14T12:51:34.812Z,89.89
2023-05-14T12:53:57.368Z,89.93
2023-05-14T12:56:20.316Z,90.50
2023-05-14T12:58:43.121Z,90.87
2023-05-14T13:01:06.236Z,90.89
2023-05-14T13:03:28.859Z,91.05
2023-05-14T13:05:52.650Z,90.77
2023-05-14T13:08:17.892Z,91.13
2023-05-14T13:10:40.732Z,91.02
2023-05-14T13:13:03.300Z,91.28
2023-05-14T13:15:26.211Z,91.61
2023-05-14T13:17:49.319Z,91.42
2023-05-14T13:20:11.988Z,91.11
2023-05-14T13:22:34.664Z,91.79
2023-05-14T13:24:57.305Z,92.14
2023-05-14T13:27:19.884Z,92.22
2023-05-14T13:29:42.602Z,92.67
2023-05-14T13:32:05.482Z,92.27
2023-05-14T13:34:28.050Z,92.44
2023-05-14T13:36:50.840Z,92.31
2023-05-14T13:39:14.476Z,92.38
2023-05-14T13:41:38.040Z,92.61
2023-05-14T13:44:01.033Z,92.85
2023-05-14T13:46:23.705Z,92.78
2023-05-14T13:48:46.376Z,92.94
2023-05-14T13:51:09.037Z,92.81
2023-05-14T13:53:31.697Z,92.91
2023-05-14T13:55:56.562Z,92.91
2023-05-14T13:58:19.552Z,92.75
2023-05-14T14:00:42.967Z,92.49
2023-05-14T14:03:05.813Z,92.67
2023-05-14T14:05:28.820Z,92.77
2023-05-14T14:07:52.979Z,92.87
2023-05-14T14:10:21.595Z,92.39
2023-05-14T14:12:44.253Z,92.60
2023-05-14T14:15:07.597Z,92.55
2023-05-14T14:17:30.530Z,92.85
2023-05-14T14:19:53.251Z,93.07
2023-05-14T14:22:17.535Z,93.42
2023-05-14T14:24:40.349Z,92.94
2023-05-14T14:27:03.102Z,92.64
2023-05-14T14:29:25.708Z,92.36
2023-05-14T14:31:48.505Z,91.58
2023-05-14T14:34:11.197Z,92.19
2023-05-14T14:36:33.867Z,92.44
2023-05-14T14:38:56.518Z,92.42
2023-05-14T14:41:19.191Z,92.53
2023-05-14T14:43:42.196Z,92.74
2023-05-14T14:46:05.405Z,92.84
2023-05-14T14:48:34.294Z,92.70
2023-05-14T14:50:57.267Z,93.06
2023-05-14T14:53:21.215Z,93.12
2023-05-14T14:55:44.122Z,93.04
2023-05-14T14:58:06.839Z,93.09
2023-05-14T15:00:29.488Z,93.01
2023-05-14T15:02:52.281Z,93.10
2023-05-14T15:05:15.147Z,93.13
2023-05-14T15:07:37.806Z,93.15
2023-05-14T15:10:00.564Z,93.02
2023-05-14T15:12:23.549Z,93.25
2023-05-14T15:14:46.353Z,93.22
2023-05-14T15:17:09.019Z,93.26
2023-05-14T15:19:32.399Z,93.26
2023-05-14T15:21:55.163Z,93.37
2023-05-14T15:24:18.404Z,93.43
2023-05-14T15:26:41.581Z,93.54
2023-05-14T15:29:05.704Z,93.91
2023-05-14T15:31:28.464Z,93.70
2023-05-14T15:33:52.326Z,93.69
2023-05-14T15:36:15.210Z,93.60
2023-05-14T15:38:38.021Z,93.38
2023-05-14T15:41:00.730Z,93.62
2023-05-14T15:43:23.421Z,93.65
2023-05-14T15:45:46.325Z,93.44
2023-05-14T15:48:09.206Z,93.77
2023-05-14T15:50:31.822Z,93.64
2023-05-14T15:52:54.716Z,93.25
2023-05-14T15:55:17.400Z,93.82
2023-05-14T15:57:40.014Z,93.96
2023-05-14T16:00:10.120Z,93.80
2023-05-14T16:02:33.552Z,93.63
2023-05-14T16:04:56.326Z,93.43
2023-05-14T16:07:18.994Z,93.69
2023-05-14T16:09:41.771Z,93.94
2023-05-14T16:12:05.905Z,93.96
2023-05-14T16:14:28.563Z,94.03
2023-05-14T16:16:51.331Z,93.94
2023-05-14T16:19:14.152Z,93.84
2023-05-14T16:21:36.962Z,93.91
2023-05-14T16:23:59.579Z,93.94
2023-05-14T16:26:22.444Z,93.85
2023-05-14T16:28:45.142Z,93.67
2023-05-14T16:31:07.848Z,93.80
2023-05-14T16:33:30.565Z,93.87
2023-05-14T16:35:53.197Z,93.90
2023-05-14T16:38:15.937Z,93.73
2023-05-14T16:40:38.574Z,93.68
2023-05-14T16:43:01.246Z,93.51
2023-05-14T16:45:24.236Z,93.84
2023-05-14T16:47:46.950Z,93.59
2023-05-14T16:50:10.141Z,93.16
2023-05-14T16:52:33.054Z,93.20
2023-05-14T16:54:55.664Z,93.54
2023-05-14T16:57:18.391Z,93.81
2023-05-14T16:59:41.174Z,93.58
2023-05-14T17:02:04.386Z,93.26
2023-05-14T17:04:27.653Z,93.69
2023-05-14T17:06:51.401Z,93.98
2023-05-14T17:09:14.155Z,94.25
2023-05-14T17:11:36.749Z,94.38
2023-05-14T17:13:59.565Z,94.47
2023-05-14T17:16:22.206Z,94.63
2023-05-14T17:18:45.839Z,94.68
2023-05-14T17:21:08.912Z,94.65
2023-05-14T17:23:31.586Z,94.38
2023-05-14T17:25:56.764Z,94.38
2023-05-14T17:28:19.465Z,94.36
2023-05-14T17:30:42.127Z,94.41
2023-05-14T17:33:05.159Z,94.27
2023-05-14T17:35:28.042Z,94.39
2023-05-14T17:37:50.795Z,94.53
2023-05-14T17:40:34.705Z,94.44
2023-05-14T17:42:57.342Z,94.52
2023-05-14T17:45:20.879Z,94.40
2023-05-14T17:47:43.550Z,94.39
2023-05-14T17:50:06.731Z,94.21
2023-05-14T17:52:29.671Z,94.18
2023-05-14T17:54:52.306Z,94.10
2023-05-14T17:57:15.011Z,94.02
2023-05-14T17:59:37.759Z,94.04
2023-05-14T18:02:00.411Z,93.94
2023-05-14T18:04:23.213Z,93.67
2023-05-14T18:06:45.998Z,93.75
2023-05-14T18:09:08.613Z,93.77
2023-05-14T18:11:33.956Z,93.94
2023-05-14T18:13:56.487Z,94.18
2023-05-14T18:16:19.320Z,94.17
2023-05-14T18:18:42.140Z,94.05
2023-05-14T18:21:04.800Z,94.12
2023-05-14T18:23:27.420Z,94.20
2023-05-14T18:25:50.518Z,93.82
2023-05-14T18:28:13.173Z,93.95
2023-05-14T18:30:35.997Z,94.01
2023-05-14T18:32:59.791Z,93.95
2023-05-14T18:35:22.652Z,94.02
2023-05-14T18:37:45.397Z,94.07
2023-05-14T18:40:09.506Z,94.01
2023-05-14T18:42:32.800Z,94.02
2023-05-14T18:44:55.759Z,94.08
2023-05-14T18:47:18.412Z,94.14
2023-05-14T18:49:42.376Z,94.14
2023-05-14T18:52:05.545Z,94.36
2023-05-14T18:54:28.731Z,94.50
2023-05-14T18:56:51.596Z,94.57
2023-05-14T18:59:14.321Z,94.71
2023-05-14T19:01:37.215Z,94.75
2023-05-14T19:04:00.226Z,94.76
2023-05-14T19:06:24.622Z,94.65
2023-05-14T19:08:47.675Z,94.78
2023-05-14T19:11:10.577Z,94.87
2023-05-14T19:13:33.709Z,95.08
2023-05-14T19:15:56.396Z,95.14
2023-05-14T19:18:19.570Z,95.20
2023-05-14T19:20:42.717Z,95.31
2023-05-14T19:23:05.391Z,95.38
2023-05-14T19:25:28.511Z,95.15
2023-05-14T19:27:53.629Z,95.03
2023-05-14T19:30:17.759Z,95.23
2023-05-14T19:32:40.760Z,95.32
2023-05-14T19:35:04.762Z,95.35
2023-05-14T19:37:27.498Z,95.38
2023-05-14T19:39:50.378Z,95.40
2023-05-14T19:42:13.177Z,95.45
2023-05-14T19:44:35.848Z,95.52
2023-05-14T19:46:58.850Z,95.53
2023-05-14T19:49:21.439Z,95.57
2023-05-14T19:51:44.058Z,95.60
2023-05-14T19:54:06.885Z,95.61
2023-05-14T19:56:30.027Z,95.62
2023-05-14T19:58:52.860Z,95.62
2023-05-14T20:01:16.102Z,95.61
2023-05-14T20:03:39.164Z,95.56
2023-05-14T20:06:02.513Z,95.57
2023-05-14T20:08:25.482Z,95.67
2023-05-14T20:10:48.583Z,95.62
2023-05-14T20:13:31.906Z,95.68
2023-05-14T20:16:16.958Z,95.52
2023-05-14T20:18:39.650Z,95.12
2023-05-14T20:21:02.428Z,95.30
2023-05-14T20:23:25.140Z,95.35
2023-05-14T20:25:47.888Z,95.42
2023-05-14T20:28:10.788Z,95.48
2023-05-14T20:30:33.476Z,95.48
2023-05-14T20:32:56.424Z,95.40
2023-05-14T20:35:18.997Z,95.30
2023-05-14T20:37:41.875Z,95.28
2023-05-14T20:40:06.155Z,95.12
2023-05-14T20:42:28.894Z,95.13
2023-05-14T20:44:52.980Z,95.23
2023-05-14T20:47:20.194Z,95.23
2023-05-14T20:49:42.759Z,95.37
2023-05-14T20:52:05.929Z,95.38
2023-05-14T20:54:28.508Z,95.31
2023-05-14T20:56:51.383Z,94.95
2023-05-14T20:59:13.990Z,94.61
2023-05-14T21:01:36.733Z,94.50
2023-05-14T21:03:59.535Z,94.43
2023-05-14T21:06:22.628Z,94.39
2023-05-14T21:08:45.402Z,94.15
2023-05-14T21:11:08.584Z,94.30
2023-05-14T21:13:31.195Z,94.26
2023-05-14T21:15:53.876Z,94.11
2023-05-14T21:18:16.894Z,94.00
2023-05-14T21:20:40.165Z,94.12
2023-05-14T21:23:02.768Z,93.94
2023-05-14T21:25:25.663Z,94.06
2023-05-14T21:27:48.371Z,94.04
2023-05-14T21:30:11.777Z,93.94
2023-05-14T21:32:34.348Z,93.99
2023-05-14T21:34:56.993Z,94.08
2023-05-14T21:37:21.352Z,94.27
2023-05-14T21:39:43.976Z,94.49
2023-05-14T21:42:07.018Z,94.46
2023-05-14T21:44:29.647Z,94.50
2023-05-14T21:46:52.279Z,94.51
2023-05-14T21:49:14.986Z,94.58
2023-05-14T21:51:37.586Z,94.49
2023-05-14T21:54:00.254Z,94.65
2023-05-14T21:56:23.480Z,94.50
2023-05-14T21:58:46.346Z,94.47
2023-05-14T22:01:11.527Z,94.51
2023-05-14T22:03:34.896Z,94.43
2023-05-14T22:05:57.613Z,94.50
2023-05-14T22:08:20.371Z,94.47
2023-05-14T22:10:42.950Z,94.46
2023-05-14T22:13:05.615Z,94.39
2023-05-14T22:15:28.211Z,94.22
2023-05-14T22:17:51.312Z,94.13
2023-05-14T22:20:14.299Z,94.11
2023-05-14T22:22:36.895Z,93.97
2023-05-14T22:24:59.505Z,93.75
2023-05-14T22:27:22.160Z,93.79
2023-05-14T22:29:44.922Z,93.55
2023-05-14T22:32:08.262Z,93.41
2023-05-14T22:34:30.837Z,93.45
2023-05-14T22:36:53.588Z,93.24
2023-05-14T22:39:16.112Z,92.76
2023-05-14T22:41:38.981Z,92.84
2023-05-14T22:44:01.551Z,92.85
2023-05-14T22:46:24.279Z,92.95
2023-05-14T22:48:49.200Z,93.07
2023-05-14T22:51:11.897Z,92.93
2023-05-14T22:53:34.461Z,92.96
2023-05-14T22:55:57.305Z,93.02
2023-05-14T22:58:20.153Z,93.13
2023-05-14T23:00:43.032Z,93.22
2023-05-14T23:03:05.817Z,93.13
2023-05-14T23:05:28.447Z,93.25
2023-05-14T23:07:52.724Z,93.19
2023-05-14T23:10:15.312Z,92.95
2023-05-14T23:12:37.992Z,92.80
2023-05-14T23:15:00.642Z,92.63
2023-05-14T23:17:23.284Z,92.80
2023-05-14T23:19:46.007Z,92.89
2023-05-14T23:22:09.102Z,93.11
2023-05-14T23:24:31.708Z,93.14
2023-05-14T23:26:54.296Z,93.29
2023-05-14T23:29:16.885Z,93.25
2023-05-14T23:31:41.131Z,93.17
2023-05-14T23:34:03.806Z,93.25
2023-05-14T23:36:26.411Z,93.33
2023-05-14T23:38:49.242Z,93.37
2023-05-14T23:41:11.855Z,93.12
2023-05-14T23:43:34.568Z,93.20
2023-05-14T23:45:57.198Z,93.15
2023-05-14T23:48:20.181Z,93.34
2023-05-14T23:50:43.966Z,93.51
2023-05-14T23:53:06.634Z,93.44
2023-05-14T23:55:29.329Z,93.19
2023-05-14T23:57:51.921Z,93.40
